createdAt,value
2022-09-25T00:01:22.571Z,14.00
2022-09-25T00:03:50.748Z,13.90
2022-09-25T00:06:20.849Z,14.10
2022-09-25T00:08:49.506Z,14.20
2022-09-25T00:11:19.071Z,14.20
2022-09-25T00:13:47.983Z,14.20
2022-09-25T00:16:18.743Z,14.20
2022-09-25T00:19:06.138Z,14.10
2022-09-25T00:21:35.372Z,14.10
2022-09-25T00:24:05.801Z,14.10
2022-09-25T00:26:35.864Z,14.00
2022-09-25T00:29:04.489Z,13.90
2022-09-25T00:31:38.781Z,13.80
2022-09-25T00:34:08.403Z,13.80
2022-09-25T00:36:36.488Z,13.70
2022-09-25T00:39:05.005Z,13.70
2022-09-25T00:41:34.863Z,13.70
2022-09-25T00:44:04.555Z,13.70
2022-09-25T00:46:37.810Z,13.80
2022-09-25T00:49:12.488Z,13.80
2022-09-25T00:51:47.309Z,13.70
2022-09-25T00:54:20.729Z,13.70
2022-09-25T00:56:51.378Z,13.60
2022-09-25T00:59:22.651Z,13.60
2022-09-25T01:01:50.596Z,13.70
2022-09-25T01:04:21.051Z,13.70
2022-09-25T01:06:49.921Z,13.60
2022-09-25T01:09:18.242Z,13.60
2022-09-25T01:11:46.163Z,13.60
2022-09-25T01:14:17.573Z,13.60
2022-09-25T01:16:53.603Z,13.60
2022-09-25T01:19:38.126Z,13.60
2022-09-25T01:22:15.973Z,13.50
2022-09-25T01:25:05.021Z,13.40
2022-09-25T01:27:41.698Z,13.40
2022-09-25T01:30:14.110Z,13.30
2022-09-25T01:32:59.323Z,13.30
2022-09-25T01:35:40.459Z,13.40
2022-09-25T01:38:15.871Z,13.40
2022-09-25T01:40:53.209Z,13.40
2022-09-25T01:43:27.564Z,13.40
2022-09-25T01:46:01.207Z,13.40
2022-09-25T01:48:32.394Z,13.40
2022-09-25T01:51:03.765Z,13.40
2022-09-25T01:53:35.552Z,13.40
2022-09-25T01:56:08.353Z,13.40
2022-09-25T01:58:42.183Z,13.40
2022-09-25T02:01:16.692Z,13.50
2022-09-25T02:03:49.979Z,13.50
2022-09-25T02:06:21.438Z,13.50
2022-09-25T02:08:52.321Z,13.60
2022-09-25T02:11:20.421Z,13.60
2022-09-25T02:13:51.331Z,13.60
2022-09-25T02:16:24.125Z,13.60
2022-09-25T02:19:09.826Z,13.60
2022-09-25T02:21:47.663Z,13.50
2022-09-25T02:24:21.818Z,13.50
2022-09-25T02:26:50.819Z,13.50
2022-09-25T02:29:19.693Z,13.50
2022-09-25T02:31:53.885Z,13.50
2022-09-25T02:34:22.756Z,13.60
2022-09-25T02:36:50.792Z,13.60
2022-09-25T02:39:22.734Z,13.60
2022-09-25T02:42:09.233Z,13.60
2022-09-25T02:44:50.823Z,13.60
2022-09-25T02:47:34.526Z,13.60
2022-09-25T02:50:11.671Z,13.50
2022-09-25T02:52:48.229Z,13.50
2022-09-25T02:55:23.806Z,13.50
2022-09-25T02:57:57.273Z,13.40
2022-09-25T03:00:25.325Z,13.40
2022-09-25T03:02:59.112Z,13.40
2022-09-25T03:05:27.532Z,13.40
2022-09-25T03:08:13.638Z,13.40
2022-09-25T03:10:46.124Z,13.40
2022-09-25T03:13:14.904Z,13.40
2022-09-25T03:15:46.658Z,13.30
2022-09-25T03:18:16.799Z,13.30
2022-09-25T03:20:44.777Z,13.30
2022-09-25T03:23:12.751Z,13.20
2022-09-25T03:25:43.668Z,13.20
2022-09-25T03:28:14.158Z,13.10
2022-09-25T03:30:42.731Z,13.00
2022-09-25T03:33:12.124Z,13.00
2022-09-25T03:35:41.792Z,13.00
2022-09-25T03:38:10.352Z,13.00
2022-09-25T03:40:38.347Z,12.90
2022-09-25T03:45:33.554Z,12.90
2022-09-25T03:48:01.667Z,13.00
2022-09-25T03:50:29.567Z,12.90
2022-09-25T03:52:58.810Z,13.00
2022-09-25T03:55:27.075Z,13.00
2022-09-25T03:57:55.017Z,13.10
2022-09-25T04:00:24.003Z,13.10
2022-09-25T04:02:52.067Z,13.10
2022-09-25T04:05:21.737Z,13.10
2022-09-25T04:07:49.624Z,13.20
2022-09-25T04:10:18.914Z,13.20
2022-09-25T04:12:47.400Z,13.20
2022-09-25T04:15:15.338Z,13.20
2022-09-25T04:17:43.250Z,13.10
2022-09-25T04:20:11.447Z,13.10
2022-09-25T04:22:39.299Z,13.10
2022-09-25T04:25:10.049Z,13.10
2022-09-25T04:27:39.349Z,13.00
2022-09-25T04:30:08.413Z,13.00
2022-09-25T04:32:53.714Z,13.00
2022-09-25T04:35:21.682Z,13.00
2022-09-25T04:37:49.752Z,13.00
2022-09-25T04:40:17.939Z,13.00
2022-09-25T04:42:47.319Z,13.00
2022-09-25T04:45:15.900Z,13.00
2022-09-25T04:47:43.848Z,13.10
2022-09-25T04:50:11.788Z,13.10
2022-09-25T04:52:39.756Z,13.10
2022-09-25T04:55:08.173Z,13.10
2022-09-25T04:57:59.469Z,13.00
2022-09-25T05:00:26.995Z,13.00
2022-09-25T05:02:55.131Z,13.10
2022-09-25T05:05:27.322Z,13.20
2022-09-25T05:07:56.457Z,13.10
2022-09-25T05:10:26.076Z,13.20
2022-09-25T05:12:56.300Z,13.20
2022-09-25T05:15:25.936Z,13.20
2022-09-25T05:18:01.257Z,13.20
2022-09-25T05:20:29.258Z,13.30
2022-09-25T05:22:57.823Z,13.20
2022-09-25T05:25:25.728Z,13.10
2022-09-25T05:27:55.830Z,13.10
2022-09-25T05:30:25.689Z,13.10
2022-09-25T05:32:54.418Z,13.20
2022-09-25T05:35:24.540Z,13.30
2022-09-25T05:37:52.696Z,13.20
2022-09-25T05:40:22.033Z,13.20
2022-09-25T05:42:50.254Z,13.30
2022-09-25T05:45:19.912Z,13.20
2022-09-25T05:47:49.187Z,13.20
2022-09-25T05:50:18.074Z,13.30
2022-09-25T05:52:46.033Z,13.30
2022-09-25T05:55:13.915Z,13.20
2022-09-25T05:57:41.783Z,13.20
2022-09-25T06:00:12.407Z,13.20
2022-09-25T06:02:40.522Z,13.20
2022-09-25T06:05:10.556Z,13.30
2022-09-25T06:07:38.727Z,13.30
2022-09-25T06:10:07.704Z,13.20
2022-09-25T06:12:35.565Z,13.20
2022-09-25T06:15:03.657Z,13.20
2022-09-25T06:17:31.629Z,13.20
2022-09-25T06:19:59.579Z,13.20
2022-09-25T06:22:29.036Z,13.20
2022-09-25T06:24:56.982Z,13.20
2022-09-25T06:27:24.986Z,13.20
2022-09-25T06:29:52.897Z,13.20
2022-09-25T06:32:23.269Z,13.30
2022-09-25T06:34:51.217Z,13.30
2022-09-25T06:37:19.135Z,13.30
2022-09-25T06:39:48.390Z,13.30
2022-09-25T06:42:19.205Z,13.30
2022-09-25T06:44:47.148Z,13.30
2022-09-25T06:47:18.849Z,13.40
2022-09-25T06:49:48.122Z,13.40
2022-09-25T06:52:16.104Z,13.50
2022-09-25T06:54:44.525Z,13.40
2022-09-25T06:57:14.516Z,13.40
2022-09-25T06:59:42.445Z,13.40
2022-09-25T07:02:24.819Z,13.40
2022-09-25T07:04:52.840Z,13.40
2022-09-25T07:07:21.073Z,13.40
2022-09-25T07:09:49.385Z,13.40
2022-09-25T07:12:18.725Z,13.40
2022-09-25T07:14:47.586Z,13.40
2022-09-25T07:17:15.645Z,13.40
2022-09-25T07:19:43.556Z,13.50
2022-09-25T07:22:12.644Z,13.50
2022-09-25T07:24:40.528Z,13.50
2022-09-25T07:27:08.366Z,13.50
2022-09-25T07:29:37.864Z,13.50
2022-09-25T07:32:05.798Z,13.50
2022-09-25T07:34:36.125Z,13.60
2022-09-25T07:37:04.401Z,13.60
2022-09-25T07:39:32.245Z,13.70
2022-09-25T07:42:01.950Z,13.70
2022-09-25T07:44:36.238Z,13.70
2022-09-25T07:47:08.845Z,13.70
2022-09-25T07:49:37.068Z,13.80
2022-09-25T07:52:07.900Z,13.80
2022-09-25T07:54:35.895Z,13.70
2022-09-25T07:57:04.010Z,13.70
2022-09-25T07:59:31.895Z,13.70
2022-09-25T08:02:01.359Z,13.80
2022-09-25T08:04:33.632Z,13.80
2022-09-25T08:07:01.850Z,13.90
2022-09-25T08:09:29.760Z,13.80
2022-09-25T08:11:57.727Z,13.70
2022-09-25T08:14:27.119Z,13.70
2022-09-25T08:16:56.068Z,13.80
2022-09-25T08:19:24.268Z,13.90
2022-09-25T08:21:53.602Z,13.80
2022-09-25T08:24:21.583Z,13.80
2022-09-25T08:26:50.199Z,13.80
2022-09-25T08:29:20.355Z,13.80
2022-09-25T08:31:48.592Z,13.80
2022-09-25T08:34:39.332Z,13.80
2022-09-25T08:37:10.394Z,13.80
2022-09-25T08:39:38.699Z,13.80
2022-09-25T08:42:06.880Z,13.90
2022-09-25T08:44:39.852Z,13.90
2022-09-25T08:47:30.848Z,14.00
2022-09-25T08:50:06.620Z,14.10
2022-09-25T08:52:37.222Z,14.20
2022-09-25T08:55:06.767Z,14.10
2022-09-25T08:57:48.580Z,14.10
2022-09-25T09:00:21.675Z,14.20
2022-09-25T09:02:58.374Z,14.20
2022-09-25T09:05:29.940Z,14.30
2022-09-25T09:08:04.682Z,14.30
2022-09-25T09:10:38.345Z,14.30
2022-09-25T09:13:17.073Z,14.30
2022-09-25T09:15:50.712Z,14.30
2022-09-25T09:18:23.979Z,14.30
2022-09-25T09:20:57.228Z,14.30
2022-09-25T09:23:33.961Z,14.20
2022-09-25T09:26:03.956Z,14.30
2022-09-25T09:28:54.593Z,14.20
2022-09-25T09:31:30.759Z,14.20
2022-09-25T09:34:09.929Z,14.20
2022-09-25T09:36:43.630Z,14.30
2022-09-25T09:39:21.620Z,14.30
2022-09-25T09:42:01.719Z,14.30
2022-09-25T09:44:41.986Z,14.30
2022-09-25T09:47:22.534Z,14.40
2022-09-25T09:49:54.488Z,14.40
2022-09-25T09:52:25.447Z,14.50
2022-09-25T09:55:01.829Z,14.60
2022-09-25T09:57:33.062Z,14.60
2022-09-25T10:00:05.945Z,14.70
2022-09-25T10:02:39.656Z,14.70
2022-09-25T10:05:11.055Z,14.70
2022-09-25T10:07:41.363Z,14.70
2022-09-25T10:10:15.505Z,14.70
2022-09-25T10:12:48.669Z,14.70
2022-09-25T10:15:25.806Z,14.80
2022-09-25T10:17:55.422Z,14.90
2022-09-25T10:20:25.633Z,14.90
2022-09-25T10:22:56.648Z,15.00
2022-09-25T10:25:42.552Z,15.10
2022-09-25T10:28:27.353Z,15.30
2022-09-25T10:30:56.913Z,15.40
2022-09-25T10:33:26.545Z,15.50
2022-09-25T10:35:56.225Z,15.60
2022-09-25T10:38:35.947Z,15.80
2022-09-25T10:41:09.430Z,15.90
2022-09-25T10:43:52.107Z,15.90
2022-09-25T10:46:47.847Z,15.90
2022-09-25T10:49:38.854Z,15.90
2022-09-25T10:52:09.751Z,15.90
2022-09-25T10:54:44.843Z,15.70
2022-09-25T10:57:34.317Z,15.60
2022-09-25T11:00:05.801Z,15.60
2022-09-25T11:02:38.024Z,15.50
2022-09-25T11:05:09.010Z,15.50
2022-09-25T11:07:37.058Z,15.60
2022-09-25T11:10:05.635Z,15.70
2022-09-25T11:12:35.967Z,15.70
2022-09-25T11:15:10.361Z,15.90
2022-09-25T11:17:40.281Z,16.10
2022-09-25T11:20:22.580Z,16.20
2022-09-25T11:22:59.067Z,16.50
2022-09-25T11:25:33.175Z,17.10
2022-09-25T11:28:18.354Z,17.40
2022-09-25T11:30:48.837Z,17.80
2022-09-25T11:33:29.011Z,18.50
2022-09-25T11:36:03.715Z,18.40
2022-09-25T11:38:56.904Z,18.20
2022-09-25T11:41:32.690Z,18.10
2022-09-25T11:44:19.859Z,17.90
2022-09-25T11:46:56.763Z,17.80
2022-09-25T11:49:28.869Z,17.60
2022-09-25T11:52:30.459Z,17.40
2022-09-25T11:55:28.049Z,17.70
2022-09-25T11:58:07.895Z,17.80
2022-09-25T12:00:45.078Z,17.60
2022-09-25T12:03:33.735Z,17.30
2022-09-25T12:06:30.399Z,17.10
2022-09-25T12:09:18.819Z,16.60
2022-09-25T12:11:55.086Z,16.40
2022-09-25T12:14:31.096Z,16.30
2022-09-25T12:17:07.244Z,16.20
2022-09-25T12:19:43.351Z,16.10
2022-09-25T12:22:19.921Z,16.10
2022-09-25T12:25:00.680Z,16.10
2022-09-25T12:27:42.058Z,16.20
2022-09-25T12:30:18.679Z,16.30
2022-09-25T12:33:16.827Z,16.40
2022-09-25T12:35:51.750Z,16.40
2022-09-25T12:38:34.621Z,16.30
2022-09-25T12:41:10.846Z,16.20
2022-09-25T12:43:45.791Z,16.20
2022-09-25T12:46:20.328Z,16.30
2022-09-25T12:48:53.410Z,16.40
2022-09-25T12:51:28.668Z,16.40
2022-09-25T12:54:00.267Z,16.60
2022-09-25T12:56:34.510Z,16.60
2022-09-25T12:59:14.655Z,16.60
2022-09-25T13:01:49.169Z,16.30
2022-09-25T13:04:34.684Z,16.10
2022-09-25T13:07:10.102Z,15.90
2022-09-25T13:09:43.343Z,15.80
2022-09-25T13:12:24.772Z,15.80
2022-09-25T13:14:59.293Z,15.90
2022-09-25T13:17:27.460Z,16.00
2022-09-25T13:20:36.998Z,16.10
2022-09-25T13:23:09.967Z,16.20
2022-09-25T13:25:46.403Z,16.20
2022-09-25T13:28:20.908Z,16.20
2022-09-25T13:31:13.205Z,16.30
2022-09-25T13:33:49.371Z,16.40
2022-09-25T13:36:36.054Z,16.50
2022-09-25T13:39:25.200Z,16.40
2022-09-25T13:41:57.818Z,16.20
2022-09-25T13:45:09.432Z,16.10
2022-09-25T13:48:04.461Z,15.80
2022-09-25T13:50:45.825Z,15.70
2022-09-25T13:53:21.557Z,15.50
2022-09-25T13:56:28.731Z,15.40
2022-09-25T13:59:07.663Z,15.20
2022-09-25T14:01:38.556Z,15.10
2022-09-25T14:04:13.454Z,15.10
2022-09-25T14:06:45.274Z,15.10
2022-09-25T14:09:16.386Z,15.10
2022-09-25T14:11:51.465Z,15.10
2022-09-25T14:14:33.219Z,15.00
2022-09-25T14:17:02.574Z,15.00
2022-09-25T14:19:36.638Z,15.00
2022-09-25T14:22:06.013Z,14.90
2022-09-25T14:24:36.585Z,14.80
2022-09-25T14:27:04.709Z,14.90
2022-09-25T14:29:39.380Z,14.80
2022-09-25T14:32:53.445Z,14.70
2022-09-25T14:35:36.577Z,14.80
2022-09-25T14:38:37.407Z,14.80
2022-09-25T14:41:43.900Z,15.00
2022-09-25T14:44:37.325Z,15.00
2022-09-25T14:47:06.427Z,15.10
2022-09-25T14:49:37.970Z,15.10
2022-09-25T14:52:09.370Z,15.20
2022-09-25T14:54:41.781Z,15.20
2022-09-25T14:57:13.244Z,15.20
2022-09-25T14:59:45.769Z,15.30
2022-09-25T15:02:17.386Z,15.20
2022-09-25T15:04:45.648Z,15.30
2022-09-25T15:07:17.627Z,15.20
2022-09-25T15:09:48.432Z,15.20
2022-09-25T15:12:24.625Z,15.20
2022-09-25T15:15:03.562Z,15.30
2022-09-25T15:17:32.545Z,15.40
2022-09-25T15:20:07.280Z,15.30
2022-09-25T15:22:40.797Z,15.30
2022-09-25T15:25:23.112Z,15.40
2022-09-25T15:27:52.600Z,15.30
2022-09-25T15:30:21.095Z,15.30
2022-09-25T15:32:59.872Z,15.20
2022-09-25T15:35:30.310Z,15.10
2022-09-25T15:38:11.688Z,15.00
2022-09-25T15:40:41.414Z,15.00
2022-09-25T15:43:15.012Z,15.00
2022-09-25T15:45:49.568Z,15.00
2022-09-25T15:48:24.256Z,15.00
2022-09-25T15:50:55.021Z,15.00
2022-09-25T15:53:27.000Z,15.00
2022-09-25T15:56:05.172Z,14.90
2022-09-25T15:58:42.725Z,14.90
2022-09-25T16:01:32.009Z,14.80
2022-09-25T16:04:19.721Z,14.70
2022-09-25T16:06:49.940Z,14.70
2022-09-25T16:09:32.986Z,14.60
2022-09-25T16:12:23.836Z,14.60
2022-09-25T16:14:55.046Z,14.60
2022-09-25T16:17:32.882Z,14.60
2022-09-25T16:20:08.010Z,14.70
2022-09-25T16:22:50.000Z,14.60
2022-09-25T16:25:24.618Z,14.60
2022-09-25T16:27:56.922Z,14.60
2022-09-25T16:30:28.586Z,14.60
2022-09-25T16:33:03.492Z,14.50
2022-09-25T16:35:56.973Z,14.40
2022-09-25T16:38:29.059Z,14.50
2022-09-25T16:41:19.729Z,14.50
2022-09-25T16:43:48.602Z,14.60
2022-09-25T16:46:21.424Z,14.50
2022-09-25T16:49:00.546Z,14.50
2022-09-25T16:51:30.218Z,14.50
2022-09-25T16:53:59.523Z,14.50
2022-09-25T16:56:29.537Z,14.50
2022-09-25T16:58:58.975Z,14.60
2022-09-25T17:01:29.582Z,14.60
2022-09-25T17:03:59.860Z,14.60
2022-09-25T17:06:30.508Z,14.70
2022-09-25T17:09:00.470Z,14.70
2022-09-25T17:11:28.951Z,14.70
2022-09-25T17:13:57.102Z,14.70
2022-09-25T17:16:25.099Z,14.70
2022-09-25T17:18:57.868Z,14.70
2022-09-25T17:21:29.395Z,14.70
2022-09-25T17:23:57.397Z,14.60
2022-09-25T17:26:26.075Z,14.60
2022-09-25T17:28:53.936Z,14.50
2022-09-25T17:31:23.671Z,14.50
2022-09-25T17:33:52.021Z,14.40
2022-09-25T17:36:21.436Z,14.40
2022-09-25T17:38:49.387Z,14.40
2022-09-25T17:41:21.892Z,14.50
2022-09-25T17:43:50.221Z,14.50
2022-09-25T17:46:19.126Z,14.50
2022-09-25T17:48:53.169Z,14.50
2022-09-25T17:51:25.230Z,14.50
2022-09-25T17:53:53.839Z,14.50
2022-09-25T17:56:22.748Z,14.50
2022-09-25T17:58:51.139Z,14.40
2022-09-25T18:01:22.866Z,14.50
2022-09-25T18:03:51.309Z,14.50
2022-09-25T18:06:20.124Z,14.50
2022-09-25T18:08:50.843Z,14.50
2022-09-25T18:11:19.229Z,14.50
2022-09-25T18:13:47.211Z,14.50
2022-09-25T18:16:18.047Z,14.50
2022-09-25T18:19:03.821Z,14.50
2022-09-25T18:21:49.566Z,14.60
2022-09-25T18:24:18.973Z,14.50
2022-09-25T18:26:47.149Z,14.50
2022-09-25T18:29:16.766Z,14.40
2022-09-25T18:31:45.087Z,14.40
2022-09-25T18:34:13.217Z,14.40
2022-09-25T18:36:41.199Z,14.40
2022-09-25T18:39:09.677Z,14.40
2022-09-25T18:41:39.489Z,14.40
2022-09-25T18:44:08.075Z,14.40
2022-09-25T18:46:37.413Z,14.40
2022-09-25T18:49:05.915Z,14.40
2022-09-25T18:51:34.274Z,14.40
2022-09-25T18:54:03.369Z,14.30
2022-09-25T18:56:31.918Z,14.30
2022-09-25T18:59:01.565Z,14.30
2022-09-25T19:01:29.559Z,14.30
2022-09-25T19:03:57.554Z,14.30
2022-09-25T19:06:25.589Z,14.30
2022-09-25T19:08:55.710Z,14.20
2022-09-25T19:11:24.676Z,14.20
2022-09-25T19:13:52.898Z,14.20
2022-09-25T19:16:22.987Z,14.20
2022-09-25T19:18:51.180Z,14.20
2022-09-25T19:21:22.477Z,14.10
2022-09-25T19:23:51.282Z,14.10
2022-09-25T19:26:22.141Z,14.10
2022-09-25T19:28:50.152Z,14.10
2022-09-25T19:31:20.438Z,14.10
2022-09-25T19:33:50.697Z,14.10
2022-09-25T19:36:20.551Z,14.00
2022-09-25T19:38:49.008Z,14.00
2022-09-25T19:41:18.995Z,14.00
2022-09-25T19:43:47.135Z,14.00
2022-09-25T19:46:17.482Z,14.00
2022-09-25T19:48:46.570Z,14.00
2022-09-25T19:51:16.561Z,14.00
2022-09-25T19:53:47.999Z,14.00
2022-09-25T19:56:16.464Z,14.00
2022-09-25T19:58:44.451Z,14.00
2022-09-25T20:01:15.299Z,14.00
2022-09-25T20:03:45.254Z,13.90
2022-09-25T20:06:27.109Z,13.90
2022-09-25T20:08:58.556Z,13.80
2022-09-25T20:11:27.593Z,13.80
2022-09-25T20:13:55.993Z,13.80
2022-09-25T20:16:28.283Z,13.70
2022-09-25T20:18:57.964Z,13.60
2022-09-25T20:21:30.154Z,13.60
2022-09-25T20:23:59.776Z,13.60
2022-09-25T20:26:28.539Z,13.60
2022-09-25T20:28:58.249Z,13.50
2022-09-25T20:31:27.815Z,13.50
2022-09-25T20:33:56.301Z,13.50
2022-09-25T20:36:25.571Z,13.50
2022-09-25T20:38:56.562Z,13.40
2022-09-25T20:41:26.032Z,13.40
2022-09-25T20:43:55.211Z,13.40
2022-09-25T20:46:23.964Z,13.40
2022-09-25T20:48:56.006Z,13.40
2022-09-25T20:51:27.390Z,13.40
2022-09-25T20:53:58.605Z,13.40
2022-09-25T20:56:27.371Z,13.40
2022-09-25T20:58:56.513Z,13.40
2022-09-25T21:01:26.804Z,13.30
2022-09-25T21:03:55.369Z,13.30
2022-09-25T21:06:24.834Z,13.20
2022-09-25T21:08:55.102Z,13.20
2022-09-25T21:11:25.407Z,13.20
2022-09-25T21:13:55.695Z,13.10
2022-09-25T21:16:24.129Z,13.10
2022-09-25T21:18:54.005Z,13.10
2022-09-25T21:21:21.961Z,13.10
2022-09-25T21:23:51.635Z,13.00
2022-09-25T21:26:19.925Z,13.00
2022-09-25T21:28:51.496Z,12.90
2022-09-25T21:31:21.502Z,12.90
2022-09-25T21:33:51.327Z,12.80
2022-09-25T21:36:19.587Z,12.80
2022-09-25T21:38:47.585Z,12.70
2022-09-25T21:41:17.552Z,12.70
2022-09-25T21:43:46.357Z,12.70
2022-09-25T21:46:18.221Z,12.70
2022-09-25T21:48:49.634Z,12.60
2022-09-25T21:51:18.666Z,12.60
2022-09-25T21:53:46.914Z,12.60
2022-09-25T21:56:17.283Z,12.50
2022-09-25T21:58:45.763Z,12.50
2022-09-25T22:01:16.264Z,12.40
2022-09-25T22:03:48.068Z,12.40
2022-09-25T22:06:17.644Z,12.40
2022-09-25T22:08:47.424Z,12.40
2022-09-25T22:11:17.518Z,12.30
2022-09-25T22:13:47.263Z,12.30
2022-09-25T22:16:18.973Z,12.20
2022-09-25T22:18:49.095Z,12.20
2022-09-25T22:21:19.251Z,12.10
2022-09-25T22:23:47.976Z,12.00
2022-09-25T22:26:17.883Z,11.90
2022-09-25T22:28:45.895Z,11.90
2022-09-25T22:31:17.173Z,11.80
2022-09-25T22:33:45.428Z,11.80
2022-09-25T22:36:14.108Z,11.80
2022-09-25T22:38:42.213Z,11.70
2022-09-25T22:41:12.273Z,11.70
2022-09-25T22:43:40.919Z,11.60
2022-09-25T22:46:10.366Z,11.60
2022-09-25T22:48:40.164Z,11.50
2022-09-25T22:51:09.878Z,11.50
2022-09-25T22:53:37.944Z,11.40
2022-09-25T22:56:11.092Z,11.30
2022-09-25T22:58:39.222Z,11.30
2022-09-25T23:01:10.716Z,11.20
2022-09-25T23:03:40.297Z,11.20
2022-09-25T23:06:08.675Z,11.10
2022-09-25T23:08:36.563Z,11.10
2022-09-25T23:11:08.462Z,11.10
2022-09-25T23:13:37.498Z,11.00
2022-09-25T23:16:09.684Z,11.00
2022-09-25T23:18:39.660Z,10.90
2022-09-25T23:21:08.580Z,10.90
2022-09-25T23:23:36.472Z,10.80
2022-09-25T23:26:06.838Z,10.80
2022-09-25T23:28:35.614Z,10.80
2022-09-25T23:31:08.675Z,10.80
2022-09-25T23:33:37.269Z,10.80
2022-09-25T23:36:09.438Z,10.70
2022-09-25T23:38:37.669Z,10.70
2022-09-25T23:41:15.096Z,10.60
2022-09-25T23:43:43.356Z,10.60
2022-09-25T23:46:11.367Z,10.60
2022-09-25T23:48:39.612Z,10.60
2022-09-25T23:51:09.945Z,10.60
2022-09-25T23:53:38.542Z,10.60
2022-09-25T23:56:08.061Z,10.60
2022-09-25T23:58:36.232Z,10.50
